Time;durP1;ratioP1;P1;durP2;ratioP2;P2;SDS_P1;SDS_P2;PMS_P1;PMS_P2;Temp;Humidity;BMP_temperature;BMP_pressure;BME280_temperature;BME280_humidity;BME280_pressure;Samples;Min_cycle;Max_cycle;Signal;HPM_P1;HPM_P2
2021/12/10 00:03:47;;;;;;;;;;;;;;;2.16;100.00;93847.56;10407681;28;19921;-78
2021/12/10 00:08:52;;;;;;;;;;;;;;;2.07;100.00;93856.97;10389413;28;19944;-79
2021/12/10 00:13:52;;;;;;;;;;;;;;;2.14;100.00;93835.59;10405340;28;19967;-76
2021/12/10 00:19:05;;;;;;;;;;;;;;;2.26;100.00;93857.53;10406741;28;20459;-76
2021/12/10 00:24:05;;;;;;;;;;;;;;;2.31;100.00;93856.78;10408360;28;19918;-75
2021/12/10 00:29:07;;;;;;;;;;;;;;;2.00;100.00;93835.13;10405148;28;19971;-80
2021/12/10 00:34:15;;;;;;;;;;;;;;;2.23;100.00;93831.47;10404677;28;19917;-75
2021/12/10 00:39:21;;;;;;;;;;;;;;;2.08;100.00;93821.47;10404341;28;19999;-74
2021/12/10 00:44:21;;;;;;;;;;;;;;;2.06;100.00;93839.47;10405746;28;19925;-73
2021/12/10 00:49:21;;;;;;;;;;;;;;;2.15;100.00;93822.09;10405329;28;19971;-75
2021/12/10 00:54:22;;;;;;;;;;;;;;;2.31;100.00;93830.28;10404107;28;19917;-75
2021/12/10 00:59:22;;;;;;;;;;;;;;;2.47;100.00;93813.53;10390544;28;19917;-80
2021/12/10 01:04:28;;;;;;;;;;;;;;;2.61;100.00;93806.03;10378467;28;20016;-75
2021/12/10 01:09:30;;;;;;;;;;;;;;;2.74;100.00;93804.84;10378203;28;19933;-75
2021/12/10 01:14:53;;;;;;;;;;;;;;;2.88;100.00;93808.72;10363210;28;19921;-75
2021/12/10 01:25:32;;;;;;;;;;;;;;;2.52;100.00;93808.28;10363102;28;20307;-74
2021/12/10 01:30:34;;;;;;;;;;;;;;;2.52;100.00;93805.63;10363086;28;19920;-74
2021/12/10 01:35:37;;;;;;;;;;;;;;;2.73;100.00;93798.75;10377995;28;19914;-78
2021/12/10 01:40:40;;;;;;;;;;;;;;;2.81;100.00;93788.75;10362136;28;19914;-75
2021/12/10 01:45:47;;;;;;;;;;;;;;;2.91;100.00;93779.03;10377549;28;19926;-77
2021/12/10 01:50:47;;;;;;;;;;;;;;;2.84;100.00;93789.03;10377136;28;19968;-77
2021/12/10 01:55:49;;;;;;;;;;;;;;;2.79;100.00;93782.88;10377258;28;20076;-72
2021/12/10 02:00:55;;;;;;;;;;;;;;;2.85;100.00;93772.06;10362004;28;19914;-76
2021/12/10 02:05:55;;;;;;;;;;;;;;;2.61;100.00;93760.09;10361744;28;20407;-77
2021/12/10 02:10:56;;;;;;;;;;;;;;;2.77;100.00;93753.94;10376273;28;19928;-77
2021/12/10 02:15:56;;;;;;;;;;;;;;;2.84;100.00;93756.41;10376855;28;19984;-74
2021/12/10 02:21:03;;;;;;;;;;;;;;;2.89;100.00;93743.19;10376070;28;19919;-78
2021/12/10 02:26:08;;;;;;;;;;;;;;;2.80;100.00;93737.50;10361191;28;19918;-77
2021/12/10 02:31:08;;;;;;;;;;;;;;;2.82;100.00;93738.09;10376170;28;20460;-74
2021/12/10 02:36:12;;;;;;;;;;;;;;;2.88;100.00;93729.09;10376221;28;19971;-74
2021/12/10 02:41:13;;;;;;;;;;;;;;;2.91;100.00;93749.84;10379356;28;20314;-78
2021/12/10 02:46:13;;;;;;;;;;;;;;;2.89;100.00;93751.94;10384165;28;19989;-77
2021/12/10 02:51:15;;;;;;;;;;;;;;;2.78;100.00;93776.78;10384128;28;20063;-74
2021/12/10 02:56:18;;;;;;;;;;;;;;;2.50;100.00;93767.16;10383418;28;19913;-78
2021/12/10 03:01:22;;;;;;;;;;;;;;;2.44;100.00;93760.19;10383498;28;19914;-76
2021/12/10 03:06:22;;;;;;;;;;;;;;;2.67;100.00;93761.78;10367098;28;19956;-76
2021/12/10 03:11:28;;;;;;;648.95;82.78;;;;;;;2.90;100.00;93766.00;10382478;28;20931;-73
2021/12/10 03:16:29;;;;;;;559.45;66.43;;;;;;;2.93;100.00;93736.34;10383059;28;20041;-75
2021/12/10 03:21:29;;;;;;;95.35;17.25;;;;;;;2.93;100.00;93751.44;10382336;28;20030;-78
2021/12/10 03:26:30;;;;;;;9.45;2.72;;;;;;;2.58;100.00;93766.72;10365531;28;20058;-75
2021/12/10 03:31:31;;;;;;;5.00;0.80;;;;;;;2.48;100.00;93767.38;10382156;28;20032;-74
2021/12/10 03:36:32;;;;;;;111.38;22.25;;;;;;;2.55;100.00;93772.50;10381659;28;20068;-71
2021/12/10 03:41:33;;;;;;;34.20;13.82;;;;;;;2.72;100.00;93760.00;10381718;28;20212;-76
2021/12/10 03:46:33;;;;;;;0.05;0.00;;;;;;;2.71;100.00;93766.34;10364955;28;20034;-79
2021/12/10 03:51:36;;;;;;;29.55;8.85;;;;;;;2.64;100.00;93780.84;10380967;28;20056;-77
2021/12/10 03:56:39;;;;;;;25.08;5.90;;;;;;;2.70;100.00;93793.13;10381604;28;20030;-79
2021/12/10 04:01:43;;;;;;;72.40;13.13;;;;;;;2.48;100.00;93788.59;10380336;28;19983;-73
2021/12/10 04:06:44;;;;;;;452.98;56.00;;;;;;;2.59;100.00;93789.53;10381177;28;20084;-74
2021/12/10 04:11:45;;;;;;;529.00;62.10;;;;;;;2.80;100.00;93781.81;10380304;28;20049;-74
2021/12/10 04:16:53;;;;;;;182.95;35.85;;;;;;;2.93;100.00;93788.59;10347440;28;20033;-78
2021/12/10 04:21:57;;;;;;;54.50;18.73;;;;;;;2.99;100.00;93800.91;10380015;28;20458;-77
2021/12/10 04:26:58;;;;;;;13.82;6.53;;;;;;;2.87;100.00;93801.81;10379519;28;20056;-72
2021/12/10 04:31:59;;;;;;;5.78;0.35;;;;;;;2.91;100.00;93810.88;10373257;28;20125;-77
2021/12/10 04:37:02;;;;;;;3.10;0.00;;;;;;;2.83;100.00;93803.38;10363072;28;20448;-74
2021/12/10 04:42:03;;;;;;;13.35;0.35;;;;;;;3.05;100.00;93810.50;10363312;28;20514;-74
2021/12/10 04:47:03;;;;;;;0.63;0.00;;;;;;;3.14;100.00;93814.31;10362949;28;20546;-74
2021/12/10 04:52:06;;;;;;;0.00;0.00;;;;;;;3.19;100.00;93800.28;10363644;28;20041;-77
2021/12/10 04:57:08;;;;;;;3.30;3.00;;;;;;;3.12;100.00;93800.50;10363389;28;20052;-79
2021/12/10 05:02:09;;;;;;;;;;;;;;;3.06;100.00;93809.47;10384133;28;20014;-75
2021/12/10 05:07:12;;;;;;;0.00;0.00;;;;;;;2.98;100.00;93800.06;10373459;28;19948;-75
2021/12/10 05:12:13;;;;;;;4.00;1.02;;;;;;;2.96;100.00;93822.59;10385514;28;20049;-77
2021/12/10 05:17:15;;;;;;;10.15;4.32;;;;;;;3.10;100.00;93813.22;10391083;28;20657;-75
2021/12/10 05:22:15;;;;;;;4.18;0.08;;;;;;;3.21;100.00;93812.28;10369952;28;20033;-73
2021/12/10 05:27:16;;;;;;;9.73;3.63;;;;;;;3.31;100.00;93818.72;10380136;28;20036;-74
2021/12/10 05:32:19;;;;;;;132.38;22.52;;;;;;;3.28;100.00;93816.56;10378720;28;20587;-76
2021/12/10 05:37:20;;;;;;;531.42;62.92;;;;;;;3.15;100.00;93823.09;10379047;28;20381;-76
2021/12/10 05:42:20;;;;;;;531.50;62.67;;;;;;;3.16;100.00;93830.78;10378208;28;20030;-78
2021/12/10 05:47:21;;;;;;;546.78;64.82;;;;;;;3.05;100.00;93837.84;10389758;28;20033;-76
2021/12/10 05:52:22;;;;;;;586.25;69.55;;;;;;;2.87;100.00;93825.69;10374840;28;20037;-78
2021/12/10 05:57:22;;;;;;;541.17;64.78;;;;;;;2.67;100.00;93807.69;10359539;28;20068;-78
2021/12/10 06:02:23;;;;;;;568.00;66.65;;;;;;;2.44;100.00;93798.09;10372833;28;20033;-74
2021/12/10 06:07:23;;;;;;;569.10;66.72;;;;;;;2.11;100.00;93822.81;10402954;28;20061;-78
2021/12/10 06:12:24;;;;;;;418.85;374.55;;;;;;;2.15;100.00;93806.22;10400065;28;20048;-73
2021/12/10 06:17:24;;;;;;;517.83;336.25;;;;;;;1.97;100.00;93801.19;10399436;28;20349;-77
2021/12/10 06:22:26;;;;;;;341.65;197.63;;;;;;;1.60;100.00;93799.00;10395671;28;20547;-77
2021/12/10 06:27:26;;;;;;;;;;;;;;;1.80;100.00;93817.06;10395265;28;20029;-74
2021/12/10 06:32:27;;;;;;;511.30;154.20;;;;;;;1.76;100.00;93818.56;10378828;28;19909;-76
2021/12/10 06:37:28;;;;;;;63.97;31.45;;;;;;;1.84;100.00;93779.25;10396933;28;20028;-74
2021/12/10 06:42:29;;;;;;;50.60;23.85;;;;;;;1.95;100.00;93800.59;10398228;28;20036;-76
2021/12/10 06:47:29;;;;;;;65.05;28.63;;;;;;;2.05;100.00;93784.84;10400466;28;20403;-78
2021/12/10 06:52:30;;;;;;;59.55;27.20;;;;;;;2.36;100.00;93779.97;10399034;28;20125;-78
2021/12/10 06:57:31;;;;;;;70.65;29.67;;;;;;;2.45;100.00;93783.00;10359319;28;20128;-75
2021/12/10 07:02:31;;;;;;;750.85;476.52;;;;;;;2.35;100.00;93796.94;10358791;28;20021;-74
2021/12/10 07:07:32;;;;;;;732.00;492.35;;;;;;;2.45;100.00;93804.22;10397827;28;20026;-77
2021/12/10 07:12:38;;;;;;;742.13;499.23;;;;;;;2.61;100.00;93802.56;10384551;28;20054;-73
2021/12/10 07:17:53;;;;;;;746.70;481.30;;;;;;;2.82;100.00;93798.28;10357881;28;20054;-79
2021/12/10 07:22:53;;;;;;;724.15;476.02;;;;;;;3.02;100.00;93818.97;10362879;28;20033;-74
2021/12/10 07:27:54;;;;;;;716.95;460.77;;;;;;;3.25;100.00;93800.09;10403234;28;20040;-77
2021/12/10 07:32:55;;;;;;;741.08;499.13;;;;;;;3.39;100.00;93808.47;10405438;28;20026;-74
2021/12/10 07:37:56;;;;;;;736.38;491.45;;;;;;;3.55;100.00;93787.38;10405729;28;20049;-77
2021/12/10 07:42:58;;;;;;;755.92;504.52;;;;;;;3.81;100.00;93788.38;10406037;28;20108;-78
2021/12/10 07:48:00;;;;;;;765.67;526.20;;;;;;;3.97;100.00;93796.47;10407285;28;20060;-77
2021/12/10 07:53:02;;;;;;;771.30;545.45;;;;;;;4.28;100.00;93792.13;10395109;28;20026;-74
2021/12/10 07:58:05;;;;;;;776.53;566.00;;;;;;;4.40;100.00;93787.44;10380669;28;20021;-76
2021/12/10 08:03:07;;;;;;;781.85;576.00;;;;;;;4.52;100.00;93786.41;10367511;28;20459;-80
2021/12/10 08:08:09;;;;;;;773.40;548.65;;;;;;;4.48;100.00;93782.66;10405946;28;20084;-75
2021/12/10 08:13:09;;;;;;;764.25;532.42;;;;;;;4.49;100.00;93779.75;10505932;23;20054;-74
2021/12/10 08:18:11;;;;;;;765.40;534.40;;;;;;;4.69;100.00;93772.91;10379552;28;20674;-74
2021/12/10 08:23:11;;;;;;;770.97;510.90;;;;;;;4.86;100.00;93770.88;10363461;28;20065;-74
2021/12/10 08:28:16;;;;;;;802.25;622.08;;;;;;;5.29;100.00;93779.50;10374416;28;20116;-75
2021/12/10 08:33:18;;;;;;;799.38;606.47;;;;;;;5.82;100.00;93765.19;10404464;28;20554;-74
2021/12/10 08:38:19;;;;;;;799.10;606.75;;;;;;;6.07;100.00;93779.56;10400949;28;20025;-79
2021/12/10 08:43:20;;;;;;;811.53;643.50;;;;;;;6.30;100.00;93759.53;10403238;28;20021;-75
2021/12/10 08:48:21;;;;;;;800.13;613.85;;;;;;;6.03;100.00;93739.31;10402507;28;20542;-78
2021/12/10 08:53:22;;;;;;;809.65;633.55;;;;;;;5.94;100.00;93747.00;10403020;28;20177;-75
2021/12/10 08:58:23;;;;;;;814.67;640.00;;;;;;;6.07;100.00;93755.56;10402484;28;20022;-79
2021/12/10 09:03:24;;;;;;;823.55;636.75;;;;;;;5.82;100.00;93749.97;10401227;28;20032;-75
2021/12/10 09:08:24;;;;;;;808.88;582.30;;;;;;;5.81;100.00;93740.38;10401934;28;20032;-75
2021/12/10 09:13:25;;;;;;;820.25;636.83;;;;;;;5.79;100.00;93745.19;10401355;28;20699;-75
2021/12/10 09:18:27;;;;;;;813.35;630.58;;;;;;;5.58;100.00;93717.72;10401112;28;20119;-75
2021/12/10 09:23:29;;;;;;;817.95;620.88;;;;;;;5.62;100.00;93726.78;10401412;28;20586;-74
2021/12/10 09:28:30;;;;;;;824.47;634.55;;;;;;;5.71;100.00;93734.25;10401403;28;20427;-77
2021/12/10 09:33:31;;;;;;;808.92;628.55;;;;;;;5.74;100.00;93731.84;10400983;28;20028;-82
2021/12/10 09:38:33;;;;;;;816.33;630.38;;;;;;;5.70;100.00;93704.13;10401378;28;20542;-77
2021/12/10 09:43:34;;;;;;;806.45;596.38;;;;;;;6.53;100.00;93694.09;10400890;28;20391;-77
2021/12/10 09:48:34;;;;;;;78.13;33.25;;;;;;;7.94;100.00;93688.34;10395482;28;20036;-79
2021/12/10 09:53:37;;;;;;;61.42;30.60;;;;;;;7.74;100.00;93691.19;10359329;28;20175;-74
2021/12/10 09:58:38;;;;;;;62.38;28.77;;;;;;;7.10;100.00;93685.78;10359365;28;20446;-79
2021/12/10 10:03:41;;;;;;;61.08;28.42;;;;;;;6.98;100.00;93680.78;10359524;28;20026;-75
2021/12/10 10:08:42;;;;;;;58.35;29.48;;;;;;;7.16;100.00;93668.66;10375231;28;20029;-74
2021/12/10 10:13:47;;;;;;;59.42;30.80;;;;;;;7.45;100.00;93662.56;10358397;28;20059;-74
2021/12/10 10:18:49;;;;;;;63.20;29.23;;;;;;;7.63;100.00;93661.88;10359370;28;20034;-78
2021/12/10 10:23:50;;;;;;;60.58;30.20;;;;;;;8.20;100.00;93651.44;10358802;28;20036;-74
2021/12/10 10:28:52;;;;;;;60.88;28.60;;;;;;;8.20;100.00;93653.28;10374501;28;20024;-75
2021/12/10 10:33:57;;;;;;;75.93;31.98;;;;;;;8.15;100.00;93640.75;10358650;28;20561;-77
2021/12/10 10:39:03;;;;;;;55.42;26.65;;;;;;;8.55;100.00;93628.00;10374962;28;20045;-78
2021/12/10 10:44:05;;;;;;;61.75;25.85;;;;;;;8.43;100.00;93622.25;10342761;28;20030;-80
2021/12/10 10:49:06;;;;;;;59.80;27.08;;;;;;;7.40;100.00;93636.66;10374021;28;20050;-77
2021/12/10 10:54:11;;;;;;;66.60;30.95;;;;;;;7.30;100.00;93634.09;10374130;28;20421;-76
2021/12/10 10:59:25;;;;;;;65.97;31.20;;;;;;;6.96;100.00;93643.69;10374108;28;20100;-77
2021/12/10 11:04:33;;;;;;;60.28;28.15;;;;;;;7.83;100.00;93622.66;10364468;28;20036;-73
2021/12/10 11:09:41;;;;;;;;;;;;;;;7.17;100.00;93622.94;10364969;28;20030;-76
2021/12/10 11:14:45;;;;;;;44.75;21.85;;;;;;;7.07;100.00;93632.91;10382203;28;20315;-75
2021/12/10 11:20:05;;;;;;;46.83;22.75;;;;;;;6.23;100.00;93644.31;10381525;28;20033;-79
2021/12/10 11:25:23;;;;;;;42.72;20.00;;;;;;;6.12;100.00;93641.66;10381038;28;20458;-80
2021/12/10 11:30:26;;;;;;;48.23;21.53;;;;;;;5.86;100.00;93624.94;10381114;28;20026;-77
2021/12/10 11:35:43;;;;;;;47.35;21.85;;;;;;;5.78;100.00;93622.81;10382458;28;20048;-75
2021/12/10 11:40:54;;;;;;;42.63;21.52;;;;;;;5.77;100.00;93603.34;10404773;28;20479;-80
2021/12/10 11:46:31;;;;;;;45.78;22.92;;;;;;;6.01;100.00;93584.09;10405357;28;20563;-76
2021/12/10 11:51:40;;;;;;;40.85;21.42;;;;;;;6.54;100.00;93570.22;10404605;28;20044;-75
2021/12/10 11:56:45;;;;;;;26.30;14.13;;;;;;;6.78;100.00;93562.34;10404344;28;20103;-79
2021/12/10 12:02:06;;;;;;;22.65;11.30;;;;;;;6.72;100.00;93562.66;10388079;28;20076;-78
2021/12/10 12:07:20;;;;;;;36.45;17.00;;;;;;;6.69;100.00;93549.84;10388415;28;20228;-76
2021/12/10 12:12:28;;;;;;;37.80;21.05;;;;;;;6.03;100.00;93562.47;10402645;28;20065;-78
2021/12/10 12:17:37;;;;;;;47.60;21.55;;;;;;;6.19;100.00;93572.00;10403764;28;20064;-74
2021/12/10 12:28:05;;;;;;;50.50;23.63;;;;;;;6.36;100.00;93584.22;10404375;28;20029;-77
2021/12/10 12:33:10;;;;;;;55.00;24.75;;;;;;;6.40;100.00;93556.69;10403799;28;20029;-74
2021/12/10 12:38:20;;;;;;;56.58;26.95;;;;;;;6.59;100.00;93553.41;10402940;28;20503;-74
2021/12/10 12:43:20;;;;;;;63.17;29.60;;;;;;;6.76;100.00;93543.13;10404099;28;20029;-73
2021/12/10 12:48:21;;;;;;;62.10;31.83;;;;;;;6.84;100.00;93528.38;10402519;28;20087;-78
2021/12/10 12:53:29;;;;;;;48.05;24.92;;;;;;;7.17;100.00;93528.63;10402409;28;20025;-77
2021/12/10 12:58:42;;;;;;;56.00;25.30;;;;;;;7.12;100.00;93518.78;10403163;28;20029;-77
2021/12/10 13:03:59;;;;;;;54.40;25.88;;;;;;;7.16;100.00;93514.47;10402899;28;20123;-77
2021/12/10 13:09:03;;;;;;;80.43;37.63;;;;;;;7.03;100.00;93525.81;10403482;28;20036;-79
2021/12/10 13:14:15;;;;;;;84.10;38.65;;;;;;;6.90;100.00;93516.56;10402877;28;20048;-73
2021/12/10 13:19:30;;;;;;;82.75;40.83;;;;;;;6.77;100.00;93504.66;10400936;28;20048;-77
2021/12/10 13:24:30;;;;;;;86.25;40.05;;;;;;;6.55;100.00;93499.75;10400838;28;20029;-72
2021/12/10 13:29:31;;;;;;;70.47;33.42;;;;;;;6.26;100.00;93507.69;10401221;28;20033;-78
2021/12/10 13:34:32;;;;;;;74.80;36.30;;;;;;;5.89;100.00;93524.91;10402202;28;20043;-78
2021/12/10 13:39:33;;;;;;;70.88;35.10;;;;;;;5.46;100.00;93522.66;10394973;28;20034;-72
2021/12/10 13:44:41;;;;;;;91.35;40.03;;;;;;;5.80;100.00;93504.16;10384080;28;20505;-78
2021/12/10 13:49:46;;;;;;;60.93;29.87;;;;;;;5.63;100.00;93522.34;10399917;28;20037;-76
2021/12/10 13:54:53;;;;;;;65.72;31.13;;;;;;;5.88;100.00;93507.34;10399883;28;20569;-74
2021/12/10 13:59:59;;;;;;;66.00;31.00;;;;;;;5.97;100.00;93519.84;10397547;28;20035;-75
2021/12/10 14:05:17;;;;;;;60.50;30.00;;;;;;;5.97;100.00;93513.66;10394881;28;20036;-74
2021/12/10 14:10:30;;;;;;;54.45;28.00;;;;;;;5.92;100.00;93522.50;10399821;28;20095;-74
2021/12/10 14:15:43;;;;;;;64.40;32.53;;;;;;;5.94;100.00;93532.88;10384318;28;20021;-78
2021/12/10 14:20:48;;;;;;;71.00;30.88;;;;;;;5.91;100.00;93530.78;10400497;28;20080;-78
2021/12/10 14:25:55;;;;;;;62.30;32.80;;;;;;;5.68;100.00;93513.53;10399204;28;20025;-76
2021/12/10 14:30:57;;;;;;;58.70;29.60;;;;;;;5.54;100.00;93524.78;10399327;28;20158;-81
2021/12/10 14:36:24;;;;;;;56.00;27.80;;;;;;;5.62;100.00;93518.91;10400798;28;20021;-75
2021/12/10 14:41:38;;;;;;;53.90;26.73;;;;;;;5.49;100.00;93540.78;10403465;28;20078;-75
2021/12/10 14:46:41;;;;;;;72.30;29.00;;;;;;;5.53;100.00;93541.03;10372355;28;20036;-75
2021/12/10 14:51:42;;;;;;;56.92;26.40;;;;;;;5.31;100.00;93568.78;10405377;28;20029;-74
2021/12/10 14:56:51;;;;;;;51.63;24.20;;;;;;;5.32;100.00;93575.72;10387748;28;20022;-75
2021/12/10 15:02:24;;;;;;;47.05;23.05;;;;;;;5.34;100.00;93567.44;10382385;28;20566;-75
2021/12/10 15:07:33;;;;;;;37.38;18.88;;;;;;;5.43;100.00;93597.81;10347148;28;20034;-77
2021/12/10 15:12:52;;;;;;;;;;;;;;;5.04;100.00;93633.78;10382402;28;20176;-75
2021/12/10 15:17:52;;;;;;;53.67;26.02;;;;;;;4.83;100.00;93643.63;10381596;28;19909;-72
2021/12/10 15:22:54;;;;;;;52.85;26.42;;;;;;;5.06;100.00;93642.28;10366591;28;20030;-74
2021/12/10 15:27:59;;;;;;;50.40;24.92;;;;;;;5.19;100.00;93640.19;10351253;28;20061;-77
2021/12/10 15:33:08;;;;;;;43.88;18.52;;;;;;;5.34;100.00;93640.16;10387065;28;20037;-73
2021/12/10 15:38:14;;;;;;;34.10;17.70;;;;;;;5.41;100.00;93637.25;10389664;28;20136;-74
2021/12/10 15:43:20;;;;;;;39.88;17.77;;;;;;;5.11;100.00;93626.34;10401231;28;20033;-74
2021/12/10 15:48:24;;;;;;;31.63;15.80;;;;;;;5.07;100.00;93616.50;10417307;28;20030;-75
2021/12/10 15:53:35;;;;;;;20.92;11.85;;;;;;;5.05;100.00;93629.25;10401288;28;20087;-77
2021/12/10 15:58:37;;;;;;;9.80;3.42;;;;;;;4.99;100.00;93625.00;10401601;28;20469;-79
2021/12/10 16:03:47;;;;;;;7.30;3.67;;;;;;;4.85;100.00;93622.06;10390295;28;20087;-76
2021/12/10 16:08:51;;;;;;;8.23;4.53;;;;;;;4.62;100.00;93648.91;10397855;28;20060;-79
2021/12/10 16:13:53;;;;;;;7.57;4.05;;;;;;;4.56;100.00;93654.47;10392695;28;20076;-72
2021/12/10 16:18:54;;;;;;;9.18;4.63;;;;;;;4.51;100.00;93644.63;10386341;28;20036;-80
2021/12/10 16:24:12;;;;;;;8.68;3.00;;;;;;;4.64;100.00;93639.84;10391723;28;20044;-76
2021/12/10 16:29:18;;;;;;;744.65;245.15;;;;;;;4.52;100.00;93629.44;10372728;28;20064;-78
2021/12/10 16:34:22;;;;;;;23.60;16.42;;;;;;;4.60;100.00;93636.91;10388406;28;20108;-78
2021/12/10 16:39:23;;;;;;;7.45;4.90;;;;;;;4.57;100.00;93637.44;10385984;28;20117;-76
2021/12/10 16:44:27;;;;;;;386.70;87.28;;;;;;;4.61;100.00;93647.28;10405972;28;20037;-75
2021/12/10 16:49:30;;;;;;;13.57;6.03;;;;;;;4.62;100.00;93643.56;10383465;28;20116;-74
2021/12/10 16:54:36;;;;;;;25.60;9.75;;;;;;;4.63;100.00;93652.34;10365300;28;20407;-78
2021/12/10 16:59:37;;;;;;;10.43;5.10;;;;;;;4.49;100.00;93664.56;10392289;28;20053;-74
2021/12/10 17:04:42;;;;;;;35.47;12.10;;;;;;;4.71;100.00;93667.81;10402024;28;20029;-77
2021/12/10 17:09:45;;;;;;;11.90;6.45;;;;;;;4.65;100.00;93668.03;10395746;28;20099;-77
2021/12/10 17:14:54;;;;;;;19.02;8.45;;;;;;;4.68;100.00;93655.03;10390459;28;20646;-76
2021/12/10 17:20:04;;;;;;;22.15;8.45;;;;;;;4.85;100.00;93656.66;10400195;28;20618;-75
2021/12/10 17:25:28;;;;;;;23.98;9.23;;;;;;;4.88;100.00;93662.25;10383901;28;20041;-77
2021/12/10 17:30:35;;;;;;;30.25;12.10;;;;;;;4.92;100.00;93642.00;10395675;28;20029;-74
2021/12/10 17:35:41;;;;;;;33.05;13.38;;;;;;;5.00;100.00;93631.94;10386763;28;20036;-74
2021/12/10 17:40:48;;;;;;;26.00;11.00;;;;;;;5.04;100.00;93647.09;10398402;28;20135;-75
2021/12/10 17:45:57;;;;;;;26.25;13.13;;;;;;;5.02;100.00;93635.91;10368405;28;20598;-76
2021/12/10 17:51:01;;;;;;;25.98;12.63;;;;;;;5.14;100.00;93644.44;10390766;28;20469;-78
2021/12/10 17:56:02;;;;;;;17.35;9.23;;;;;;;4.66;100.00;93661.66;10385723;28;20051;-75
2021/12/10 18:01:08;;;;;;;21.55;9.68;;;;;;;4.69;100.00;93671.78;10402168;28;20033;-78
2021/12/10 18:06:13;;;;;;;35.55;17.77;;;;;;;4.70;100.00;93654.75;10400451;28;20037;-74
2021/12/10 18:11:15;;;;;;;39.42;19.95;;;;;;;4.75;100.00;93652.13;10398524;28;20064;-75
2021/12/10 18:16:22;;;;;;;71.00;29.80;;;;;;;4.52;100.00;93670.16;10398859;28;20032;-75
2021/12/10 18:21:29;;;;;;;45.70;22.65;;;;;;;4.38;100.00;93701.78;10397709;28;20039;-78
2021/12/10 18:26:40;;;;;;;42.53;21.30;;;;;;;4.40;100.00;93677.56;10396967;28;20106;-77
2021/12/10 18:31:48;;;;;;;38.33;19.10;;;;;;;4.51;100.00;93689.84;10378969;28;20037;-79
2021/12/10 18:36:52;;;;;;;39.93;20.83;;;;;;;4.12;100.00;93716.81;10360758;28;20415;-74
2021/12/10 18:42:07;;;;;;;48.22;21.00;;;;;;;4.02;100.00;93720.19;10397580;28;20033;-76
2021/12/10 18:47:09;;;;;;;31.33;16.85;;;;;;;4.17;100.00;93713.34;10386383;28;20040;-74
2021/12/10 18:52:13;;;;;;;37.28;19.17;;;;;;;4.23;100.00;93726.44;10380705;28;20083;-75
2021/12/10 18:57:22;;;;;;;35.47;17.63;;;;;;;4.26;100.00;93744.53;10393419;28;20025;-77
2021/12/10 19:02:28;;;;;;;34.67;17.95;;;;;;;3.97;100.00;93757.38;10393894;28;20041;-75
2021/12/10 19:07:44;;;;;;;33.08;18.80;;;;;;;4.16;100.00;93741.00;10362467;28;20061;-76
2021/12/10 19:12:50;;;;;;;22.45;12.55;;;;;;;4.14;100.00;93754.56;10359076;28;20512;-80
2021/12/10 19:17:56;;;;;;;23.23;12.75;;;;;;;4.26;100.00;93739.22;10375440;28;20044;-74
2021/12/10 19:22:59;;;;;;;16.20;9.43;;;;;;;4.31;100.00;93735.75;10381568;28;20040;-78
2021/12/10 19:28:05;;;;;;;18.10;8.80;;;;;;;4.38;100.00;93730.22;10384809;28;20022;-73
2021/12/10 19:33:14;;;;;;;16.00;8.75;;;;;;;4.40;100.00;93741.41;10390420;28;20029;-73
2021/12/10 19:38:25;;;;;;;17.83;8.50;;;;;;;4.42;100.00;93747.25;10367434;28;20029;-75
2021/12/10 19:43:36;;;;;;;19.17;7.63;;;;;;;4.46;100.00;93745.69;10377936;28;20376;-73
2021/12/10 19:48:43;;;;;;;17.65;9.27;;;;;;;4.39;100.00;93755.75;10382591;28;20570;-76
2021/12/10 19:54:04;;;;;;;17.00;7.78;;;;;;;4.46;100.00;93745.69;10380100;28;20017;-74
2021/12/10 19:59:22;;;;;;;15.80;8.60;;;;;;;4.48;100.00;93774.69;10369590;28;20033;-75
2021/12/10 20:04:25;;;;;;;22.48;13.20;;;;;;;4.41;100.00;93780.22;10362175;28;20028;-74
2021/12/10 20:09:38;;;;;;;23.40;10.38;;;;;;;4.52;100.00;93787.25;10334507;28;20321;-76
2021/12/10 20:14:48;;;;;;;18.95;9.73;;;;;;;4.33;100.00;93778.88;10404151;28;20128;-77
2021/12/10 20:19:56;;;;;;;10.98;6.80;;;;;;;4.43;100.00;93794.88;10403681;28;20030;-74
2021/12/10 20:25:08;;;;;;;15.15;6.90;;;;;;;4.47;100.00;93792.53;10404263;28;20038;-76
2021/12/10 20:30:20;;;;;;;2.78;1.75;;;;;;;4.58;100.00;93786.19;10379058;28;20049;-74
2021/12/10 20:35:30;;;;;;;4.70;2.17;;;;;;;4.90;100.00;93798.56;10362092;28;20084;-75
2021/12/10 20:40:36;;;;;;;7.57;3.45;;;;;;;4.94;100.00;93793.53;10362964;28;20377;-78
2021/12/10 20:45:45;;;;;;;17.85;5.93;;;;;;;5.03;100.00;93802.59;10398992;28;20033;-75
2021/12/10 20:51:16;;;;;;;8.25;4.28;;;;;;;4.90;100.00;93814.56;10369321;28;20049;-75
2021/12/10 20:56:30;;;;;;;5.55;3.20;;;;;;;4.82;100.00;93804.41;10358745;28;20042;-75
2021/12/10 21:01:37;;;;;;;18.40;8.73;;;;;;;4.81;100.00;93802.78;10361333;28;20076;-74
2021/12/10 21:06:47;;;;;;;19.60;8.88;;;;;;;4.71;100.00;93808.88;10361183;28;20547;-75
2021/12/10 21:11:50;;;;;;;19.80;9.48;;;;;;;4.55;100.00;93829.28;10397305;28;20061;-78
2021/12/10 21:17:08;;;;;;;17.17;10.48;;;;;;;4.50;100.00;93847.88;10384659;28;20030;-75
2021/12/10 21:22:19;;;;;;;23.77;12.23;;;;;;;4.39;100.00;93848.88;10402599;28;20325;-79
2021/12/10 21:27:26;;;;;;;21.83;12.63;;;;;;;4.10;100.00;93854.50;10440591;28;20139;-77
2021/12/10 21:32:32;;;;;;;30.88;14.48;;;;;;;4.07;100.00;93857.69;10405610;28;20030;-75
2021/12/10 21:37:56;;;;;;;23.48;11.15;;;;;;;3.99;100.00;93858.16;10401782;28;20025;-74
2021/12/10 21:42:59;;;;;;;18.05;9.93;;;;;;;4.00;100.00;93886.34;10400114;28;20475;-77
2021/12/10 21:48:00;;;;;;;25.25;11.13;;;;;;;4.05;100.00;93889.06;10382724;28;20037;-74
2021/12/10 21:53:10;;;;;;;22.30;11.27;;;;;;;4.02;100.00;93857.63;10401115;28;20049;-77
2021/12/10 21:58:15;;;;;;;28.10;15.07;;;;;;;3.96;100.00;93882.59;10382997;28;20597;-75
2021/12/10 22:03:54;;;;;;;29.15;17.92;;;;;;;3.80;100.00;93882.44;10384007;28;20507;-74
2021/12/10 22:09:08;;;;;;;37.70;18.10;;;;;;;3.74;100.00;93904.69;10274731;28;20604;-76
2021/12/10 22:14:17;;;;;;;40.47;18.92;;;;;;;3.56;100.00;93914.63;10399871;28;20531;-73
2021/12/10 22:19:34;;;;;;;34.70;16.85;;;;;;;3.47;100.00;93931.25;10383277;28;20037;-74
2021/12/10 22:24:41;;;;;;;35.95;18.30;;;;;;;3.32;100.00;93929.22;10391956;28;20120;-76
2021/12/10 22:29:52;;;;;;;32.08;16.00;;;;;;;3.35;100.00;93924.22;10413769;28;20496;-74
2021/12/10 22:35:01;;;;;;;31.52;15.90;;;;;;;3.39;100.00;93928.00;10382191;28;20044;-78
2021/12/10 22:40:18;;;;;;;31.35;14.68;;;;;;;3.37;100.00;93937.25;10411927;28;20029;-75
2021/12/10 22:45:48;;;;;;;33.63;14.77;;;;;;;3.31;100.00;93928.44;10398996;28;20029;-77
2021/12/10 22:51:12;;;;;;;28.63;13.18;;;;;;;3.05;100.00;93904.19;10396167;28;20076;-74
2021/12/10 22:56:17;;;;;;;20.65;11.65;;;;;;;3.04;100.00;93912.41;10401078;28;20026;-74
2021/12/10 23:01:40;;;;;;;24.08;13.40;;;;;;;2.96;100.00;93884.47;10406398;28;20022;-74
2021/12/10 23:06:43;;;;;;;28.48;10.40;;;;;;;2.88;100.00;93876.94;10406351;28;20040;-74
2021/12/10 23:11:56;;;;;;;17.95;8.68;;;;;;;2.93;100.00;93868.22;10374618;28;20041;-78
2021/12/10 23:17:06;;;;;;;23.38;8.00;;;;;;;2.99;100.00;93872.56;10408060;28;20033;-77
2021/12/10 23:22:07;;;;;;;13.95;7.25;;;;;;;2.95;100.00;93868.78;10390022;28;20032;-77
2021/12/10 23:27:25;;;;;;;14.50;7.47;;;;;;;2.96;100.00;93852.63;10428943;28;20498;-79
2021/12/10 23:32:31;;;;;;;14.80;7.80;;;;;;;2.92;100.00;93864.78;10431034;28;20029;-78
2021/12/10 23:37:32;;;;;;;18.95;7.30;;;;;;;2.86;100.00;93869.22;10448494;28;20075;-77
2021/12/10 23:42:37;;;;;;;15.30;7.57;;;;;;;2.66;100.00;93874.25;10393560;28;20493;-75